sensor_id;sensor_type;location;lat;lon;timestamp;pressure;altitude;pressure_sealevel;temperature;humidity
40730;BME280;26418;50.070;8.436;2023-08-20T00:00:29;100328.72;;;22.84;73.97
40730;BME280;26418;50.070;8.436;2023-08-20T00:03:03;100343.75;;;22.86;74.24
40730;BME280;26418;50.070;8.436;2023-08-20T00:05:32;100339.75;;;22.84;74.61
40730;BME280;26418;50.070;8.436;2023-08-20T00:07:58;100334.22;;;22.84;74.44
40730;BME280;26418;50.070;8.436;2023-08-20T00:10:23;100335.00;;;22.81;74.38
40730;BME280;26418;50.070;8.436;2023-08-20T00:12:49;100341.28;;;22.81;74.33
40730;BME280;26418;50.070;8.436;2023-08-20T00:15:15;100338.09;;;22.79;74.87
40730;BME280;26418;50.070;8.436;2023-08-20T00:17:40;100340.81;;;22.75;74.94
40730;BME280;26418;50.070;8.436;2023-08-20T00:20:10;100337.19;;;22.68;74.65
40730;BME280;26418;50.070;8.436;2023-08-20T00:22:39;100345.44;;;22.68;75.28
40730;BME280;26418;50.070;8.436;2023-08-20T00:25:05;100335.16;;;22.65;74.92
40730;BME280;26418;50.070;8.436;2023-08-20T00:27:31;100337.09;;;22.60;74.88
40730;BME280;26418;50.070;8.436;2023-08-20T00:29:58;100339.06;;;22.64;74.57
40730;BME280;26418;50.070;8.436;2023-08-20T00:32:23;100333.13;;;22.58;74.80
40730;BME280;26418;50.070;8.436;2023-08-20T00:34:49;100337.81;;;22.57;75.20
40730;BME280;26418;50.070;8.436;2023-08-20T00:37:15;100334.59;;;22.52;75.55
40730;BME280;26418;50.070;8.436;2023-08-20T00:39:40;100334.97;;;22.50;75.70
40730;BME280;26418;50.070;8.436;2023-08-20T00:42:06;100339.63;;;22.46;76.11
40730;BME280;26418;50.070;8.436;2023-08-20T00:44:33;100342.69;;;22.41;76.46
40730;BME280;26418;50.070;8.436;2023-08-20T00:47:01;100343.00;;;22.36;76.71
40730;BME280;26418;50.070;8.436;2023-08-20T00:49:28;100340.97;;;22.33;76.79
40730;BME280;26418;50.070;8.436;2023-08-20T00:51:54;100334.97;;;22.27;77.00
40730;BME280;26418;50.070;8.436;2023-08-20T00:54:22;100335.78;;;22.27;77.15
40730;BME280;26418;50.070;8.436;2023-08-20T00:56:49;100334.09;;;22.19;77.76
40730;BME280;26418;50.070;8.436;2023-08-20T00:59:16;100340.75;;;22.18;77.77
40730;BME280;26418;50.070;8.436;2023-08-20T01:01:42;100338.28;;;22.13;78.47
40730;BME280;26418;50.070;8.436;2023-08-20T01:04:08;100339.47;;;22.12;77.83
40730;BME280;26418;50.070;8.436;2023-08-20T01:12:08;100336.25;;;22.06;77.14
40730;BME280;26418;50.070;8.436;2023-08-20T01:14:35;100325.53;;;22.01;77.40
40730;BME280;26418;50.070;8.436;2023-08-20T01:17:01;100324.41;;;22.06;76.99
40730;BME280;26418;50.070;8.436;2023-08-20T01:19:27;100326.50;;;22.12;76.13
40730;BME280;26418;50.070;8.436;2023-08-20T01:21:59;100327.22;;;22.09;75.82
40730;BME280;26418;50.070;8.436;2023-08-20T01:30:03;100322.66;;;21.94;77.39
40730;BME280;26418;50.070;8.436;2023-08-20T01:32:29;100327.78;;;21.95;77.40
40730;BME280;26418;50.070;8.436;2023-08-20T01:34:54;100337.22;;;21.94;77.90
40730;BME280;26418;50.070;8.436;2023-08-20T01:37:22;100335.59;;;21.90;77.53
40730;BME280;26418;50.070;8.436;2023-08-20T01:39:48;100333.56;;;21.87;77.31
40730;BME280;26418;50.070;8.436;2023-08-20T01:42:14;100335.53;;;21.86;76.99
40730;BME280;26418;50.070;8.436;2023-08-20T01:44:39;100323.19;;;21.80;76.85
40730;BME280;26418;50.070;8.436;2023-08-20T01:47:05;100332.63;;;21.79;76.92
40730;BME280;26418;50.070;8.436;2023-08-20T01:49:30;100335.03;;;21.80;76.83
40730;BME280;26418;50.070;8.436;2023-08-20T01:51:56;100328.66;;;21.76;77.18
40730;BME280;26418;50.070;8.436;2023-08-20T01:54:22;100332.63;;;21.79;77.63
40730;BME280;26418;50.070;8.436;2023-08-20T01:56:47;100337.78;;;21.80;78.00
40730;BME280;26418;50.070;8.436;2023-08-20T01:59:13;100331.78;;;21.75;78.06
40730;BME280;26418;50.070;8.436;2023-08-20T02:01:38;100328.91;;;21.67;78.60
40730;BME280;26418;50.070;8.436;2023-08-20T02:04:04;100339.03;;;21.63;78.28
40730;BME280;26418;50.070;8.436;2023-08-20T02:06:29;100356.06;;;21.69;78.77
40730;BME280;26418;50.070;8.436;2023-08-20T02:08:55;100358.03;;;21.69;78.30
40730;BME280;26418;50.070;8.436;2023-08-20T02:11:21;100365.13;;;21.70;78.72
40730;BME280;26418;50.070;8.436;2023-08-20T02:13:46;100356.06;;;21.69;78.28
40730;BME280;26418;50.070;8.436;2023-08-20T02:16:12;100352.53;;;21.69;78.42
40730;BME280;26418;50.070;8.436;2023-08-20T02:18:38;100350.94;;;21.67;78.08
40730;BME280;26418;50.070;8.436;2023-08-20T02:21:03;100345.47;;;21.71;77.94
40730;BME280;26418;50.070;8.436;2023-08-20T02:23:29;100344.66;;;21.71;77.93
40730;BME280;26418;50.070;8.436;2023-08-20T02:25:54;100339.47;;;21.65;77.85
40730;BME280;26418;50.070;8.436;2023-08-20T02:28:20;100345.34;;;21.64;77.52
40730;BME280;26418;50.070;8.436;2023-08-20T02:30:46;100349.63;;;21.61;77.84
40730;BME280;26418;50.070;8.436;2023-08-20T02:33:12;100353.91;;;21.59;77.94
40730;BME280;26418;50.070;8.436;2023-08-20T02:35:38;100351.84;;;21.56;77.29
40730;BME280;26418;50.070;8.436;2023-08-20T02:38:05;100349.44;;;21.54;77.54
40730;BME280;26418;50.070;8.436;2023-08-20T02:40:30;100348.81;;;21.61;77.20
40730;BME280;26418;50.070;8.436;2023-08-20T02:42:56;100352.75;;;21.60;76.98
40730;BME280;26418;50.070;8.436;2023-08-20T02:45:22;100347.66;;;21.62;77.11
40730;BME280;26418;50.070;8.436;2023-08-20T02:47:48;100334.34;;;21.64;77.23
40730;BME280;26418;50.070;8.436;2023-08-20T02:50:14;100338.25;;;21.63;77.31
40730;BME280;26418;50.070;8.436;2023-08-20T02:52:45;100338.88;;;21.56;77.23
40730;BME280;26418;50.070;8.436;2023-08-20T02:55:10;100340.28;;;21.46;78.04
40730;BME280;26418;50.070;8.436;2023-08-20T02:57:36;100343.75;;;21.43;78.54
40730;BME280;26418;50.070;8.436;2023-08-20T03:00:01;100324.28;;;21.32;78.59
40730;BME280;26418;50.070;8.436;2023-08-20T03:02:27;100336.91;;;21.33;78.79
40730;BME280;26418;50.070;8.436;2023-08-20T03:04:53;100339.22;;;21.31;79.26
40730;BME280;26418;50.070;8.436;2023-08-20T03:07:21;100339.91;;;21.28;79.68
40730;BME280;26418;50.070;8.436;2023-08-20T03:09:48;100327.19;;;21.20;79.80
40730;BME280;26418;50.070;8.436;2023-08-20T03:12:13;100320.19;;;21.23;80.43
40730;BME280;26418;50.070;8.436;2023-08-20T03:14:39;100320.13;;;21.19;80.54
40730;BME280;26418;50.070;8.436;2023-08-20T03:17:04;100328.56;;;21.30;80.68
40730;BME280;26418;50.070;8.436;2023-08-20T03:19:33;100330.16;;;21.31;81.01
40730;BME280;26418;50.070;8.436;2023-08-20T03:22:00;100332.84;;;21.27;81.01
40730;BME280;26418;50.070;8.436;2023-08-20T03:24:26;100320.91;;;21.19;81.68
40730;BME280;26418;50.070;8.436;2023-08-20T03:26:52;100333.13;;;21.22;81.75
40730;BME280;26418;50.070;8.436;2023-08-20T03:29:17;100337.78;;;21.18;81.65
40730;BME280;26418;50.070;8.436;2023-08-20T03:31:43;100333.28;;;21.10;82.11
40730;BME280;26418;50.070;8.436;2023-08-20T03:34:08;100321.84;;;21.08;82.37
40730;BME280;26418;50.070;8.436;2023-08-20T03:36:35;100338.34;;;21.08;82.42
40730;BME280;26418;50.070;8.436;2023-08-20T03:39:00;100339.44;;;21.03;82.86
40730;BME280;26418;50.070;8.436;2023-08-20T03:41:26;100331.47;;;20.98;83.17
40730;BME280;26418;50.070;8.436;2023-08-20T03:43:51;100343.97;;;20.95;82.95
40730;BME280;26418;50.070;8.436;2023-08-20T03:46:17;100332.13;;;20.91;83.49
40730;BME280;26418;50.070;8.436;2023-08-20T03:48:42;100339.47;;;20.87;84.04
40730;BME280;26418;50.070;8.436;2023-08-20T03:51:08;100341.81;;;20.85;84.01
40730;BME280;26418;50.070;8.436;2023-08-20T03:53:34;100344.50;;;20.81;84.42
40730;BME280;26418;50.070;8.436;2023-08-20T03:55:59;100350.31;;;20.80;84.99
40730;BME280;26418;50.070;8.436;2023-08-20T03:58:25;100352.28;;;20.79;85.06
40730;BME280;26418;50.070;8.436;2023-08-20T04:00:50;100355.38;;;20.78;84.86
40730;BME280;26418;50.070;8.436;2023-08-20T04:03:16;100357.34;;;20.77;85.20
40730;BME280;26418;50.070;8.436;2023-08-20T04:05:44;100351.78;;;20.73;85.34
40730;BME280;26418;50.070;8.436;2023-08-20T04:08:10;100362.84;;;20.77;85.73
40730;BME280;26418;50.070;8.436;2023-08-20T04:10:36;100364.06;;;20.80;85.81
40730;BME280;26418;50.070;8.436;2023-08-20T04:13:07;100367.19;;;20.78;85.71
40730;BME280;26418;50.070;8.436;2023-08-20T04:15:32;100375.06;;;20.80;85.96
40730;BME280;26418;50.070;8.436;2023-08-20T04:17:58;100373.84;;;20.77;86.15
40730;BME280;26418;50.070;8.436;2023-08-20T04:20:23;100369.13;;;20.78;86.19
40730;BME280;26418;50.070;8.436;2023-08-20T04:22:49;100373.47;;;20.79;86.33
40730;BME280;26418;50.070;8.436;2023-08-20T04:25:15;100379.78;;;20.79;86.08
40730;BME280;26418;50.070;8.436;2023-08-20T04:27:41;100371.00;;;20.73;86.16
40730;BME280;26418;50.070;8.436;2023-08-20T04:30:07;100370.81;;;20.82;86.27
40730;BME280;26418;50.070;8.436;2023-08-20T04:32:32;100365.75;;;20.84;86.11
40730;BME280;26418;50.070;8.436;2023-08-20T04:34:58;100365.41;;;20.86;86.25
40730;BME280;26418;50.070;8.436;2023-08-20T04:37:24;100367.72;;;20.84;86.49
40730;BME280;26418;50.070;8.436;2023-08-20T04:39:50;100377.72;;;20.92;86.82
40730;BME280;26418;50.070;8.436;2023-08-20T04:42:15;100375.47;;;20.98;87.20
40730;BME280;26418;50.070;8.436;2023-08-20T04:44:41;100372.72;;;20.98;87.38
40730;BME280;26418;50.070;8.436;2023-08-20T04:47:11;100384.28;;;21.07;88.05
40730;BME280;26418;50.070;8.436;2023-08-20T04:49:37;100389.91;;;21.11;88.48
40730;BME280;26418;50.070;8.436;2023-08-20T04:52:03;100385.25;;;21.15;88.27
40730;BME280;26418;50.070;8.436;2023-08-20T04:54:29;100391.97;;;21.17;88.04
40730;BME280;26418;50.070;8.436;2023-08-20T04:56:54;100379.88;;;21.22;88.41
40730;BME280;26418;50.070;8.436;2023-08-20T04:59:20;100386.28;;;21.26;88.24
40730;BME280;26418;50.070;8.436;2023-08-20T05:01:45;100393.84;;;21.33;87.75
40730;BME280;26418;50.070;8.436;2023-08-20T05:04:11;100399.72;;;21.31;87.98
40730;BME280;26418;50.070;8.436;2023-08-20T05:06:37;100409.13;;;21.30;88.11
40730;BME280;26418;50.070;8.436;2023-08-20T05:09:03;100415.09;;;21.32;88.21
40730;BME280;26418;50.070;8.436;2023-08-20T05:11:28;100417.13;;;21.35;88.43
40730;BME280;26418;50.070;8.436;2023-08-20T05:13:56;100419.88;;;21.35;87.94
40730;BME280;26418;50.070;8.436;2023-08-20T05:16:22;100406.19;;;21.39;88.04
40730;BME280;26418;50.070;8.436;2023-08-20T05:18:48;100388.22;;;21.45;87.87
40730;BME280;26418;50.070;8.436;2023-08-20T05:21:14;100397.78;;;21.51;88.10
40730;BME280;26418;50.070;8.436;2023-08-20T05:23:40;100401.50;;;21.59;87.78
40730;BME280;26418;50.070;8.436;2023-08-20T05:26:06;100405.41;;;21.58;87.74
40730;BME280;26418;50.070;8.436;2023-08-20T05:28:33;100422.06;;;21.65;88.14
40730;BME280;26418;50.070;8.436;2023-08-20T05:30:59;100415.16;;;21.75;87.81
40730;BME280;26418;50.070;8.436;2023-08-20T05:33:24;100415.72;;;21.85;87.16
40730;BME280;26418;50.070;8.436;2023-08-20T05:35:50;100413.97;;;21.96;86.97
40730;BME280;26418;50.070;8.436;2023-08-20T05:38:16;100423.63;;;22.09;86.27
40730;BME280;26418;50.070;8.436;2023-08-20T05:40:43;100429.34;;;22.20;85.60
40730;BME280;26418;50.070;8.436;2023-08-20T05:43:08;100435.81;;;22.32;85.02
40730;BME280;26418;50.070;8.436;2023-08-20T05:45:35;100423.63;;;22.33;84.58
40730;BME280;26418;50.070;8.436;2023-08-20T05:48:00;100428.63;;;22.47;84.27
40730;BME280;26418;50.070;8.436;2023-08-20T05:50:26;100430.28;;;22.51;84.13
40730;BME280;26418;50.070;8.436;2023-08-20T05:52:52;100428.84;;;22.61;83.90
40730;BME280;26418;50.070;8.436;2023-08-20T05:55:18;100428.53;;;22.66;83.74
40730;BME280;26418;50.070;8.436;2023-08-20T05:57:43;100423.88;;;22.70;82.86
40730;BME280;26418;50.070;8.436;2023-08-20T06:00:10;100427.53;;;22.78;82.89
40730;BME280;26418;50.070;8.436;2023-08-20T06:02:36;100429.28;;;22.90;82.58
40730;BME280;26418;50.070;8.436;2023-08-20T06:05:03;100426.56;;;22.93;82.22
40730;BME280;26418;50.070;8.436;2023-08-20T06:07:30;100439.72;;;23.04;81.75
40730;BME280;26418;50.070;8.436;2023-08-20T06:09:56;100428.78;;;23.11;81.87
40730;BME280;26418;50.070;8.436;2023-08-20T06:12:23;100442.00;;;23.25;81.27
40730;BME280;26418;50.070;8.436;2023-08-20T06:14:48;100437.41;;;23.36;80.62
40730;BME280;26418;50.070;8.436;2023-08-20T06:17:14;100440.19;;;23.40;80.46
40730;BME280;26418;50.070;8.436;2023-08-20T06:19:40;100445.84;;;23.51;80.51
40730;BME280;26418;50.070;8.436;2023-08-20T06:22:05;100443.50;;;23.53;79.75
40730;BME280;26418;50.070;8.436;2023-08-20T06:24:31;100453.81;;;23.56;79.64
40730;BME280;26418;50.070;8.436;2023-08-20T06:26:56;100450.63;;;23.54;79.45
40730;BME280;26418;50.070;8.436;2023-08-20T06:29:22;100450.66;;;23.58;79.82
40730;BME280;26418;50.070;8.436;2023-08-20T06:31:48;100449.88;;;23.57;79.73
40730;BME280;26418;50.070;8.436;2023-08-20T06:34:14;100439.31;;;23.63;79.35
40730;BME280;26418;50.070;8.436;2023-08-20T06:36:40;100437.41;;;23.70;79.12
40730;BME280;26418;50.070;8.436;2023-08-20T06:39:05;100450.50;;;23.77;79.05
40730;BME280;26418;50.070;8.436;2023-08-20T06:41:31;100454.13;;;23.85;78.59
40730;BME280;26418;50.070;8.436;2023-08-20T06:43:57;100460.91;;;23.91;78.20
40730;BME280;26418;50.070;8.436;2023-08-20T06:46:22;100456.66;;;23.97;78.32
40730;BME280;26418;50.070;8.436;2023-08-20T06:48:48;100451.16;;;24.01;77.64
40730;BME280;26418;50.070;8.436;2023-08-20T06:51:14;100459.56;;;24.12;77.53
40730;BME280;26418;50.070;8.436;2023-08-20T06:53:41;100459.25;;;24.21;77.35
40730;BME280;26418;50.070;8.436;2023-08-20T06:56:10;100455.72;;;24.24;76.67
40730;BME280;26418;50.070;8.436;2023-08-20T06:58:37;100459.25;;;24.21;76.80
40730;BME280;26418;50.070;8.436;2023-08-20T07:01:03;100463.50;;;24.11;77.64
40730;BME280;26418;50.070;8.436;2023-08-20T07:03:36;100470.19;;;24.10;77.57
40730;BME280;26418;50.070;8.436;2023-08-20T07:06:02;100470.69;;;24.19;77.88
40730;BME280;26418;50.070;8.436;2023-08-20T07:08:28;100472.75;;;24.29;77.09
40730;BME280;26418;50.070;8.436;2023-08-20T07:10:54;100455.88;;;24.38;76.58
40730;BME280;26418;50.070;8.436;2023-08-20T07:13:19;100471.34;;;24.46;76.13
40730;BME280;26418;50.070;8.436;2023-08-20T07:15:45;100469.78;;;24.49;75.59
40730;BME280;26418;50.070;8.436;2023-08-20T07:18:11;100473.31;;;24.49;75.29
40730;BME280;26418;50.070;8.436;2023-08-20T07:20:39;100479.28;;;24.55;74.85
40730;BME280;26418;50.070;8.436;2023-08-20T07:23:05;100474.63;;;24.63;74.28
40730;BME280;26418;50.070;8.436;2023-08-20T07:25:30;100469.19;;;24.70;74.10
40730;BME280;26418;50.070;8.436;2023-08-20T07:27:56;100473.56;;;24.75;73.74
40730;BME280;26418;50.070;8.436;2023-08-20T07:30:25;100471.63;;;24.83;73.42
40730;BME280;26418;50.070;8.436;2023-08-20T07:32:51;100465.34;;;24.89;72.54
40730;BME280;26418;50.070;8.436;2023-08-20T07:35:16;100470.94;;;24.96;72.58
40730;BME280;26418;50.070;8.436;2023-08-20T07:37:42;100459.47;;;25.02;72.17
40730;BME280;26418;50.070;8.436;2023-08-20T07:40:08;100456.81;;;25.13;71.85
40730;BME280;26418;50.070;8.436;2023-08-20T07:42:34;100465.94;;;25.27;71.31
40730;BME280;26418;50.070;8.436;2023-08-20T07:45:00;100468.78;;;25.38;69.85
40730;BME280;26418;50.070;8.436;2023-08-20T07:47:26;100469.25;;;25.48;69.43
40730;BME280;26418;50.070;8.436;2023-08-20T07:49:54;100470.88;;;25.60;68.88
40730;BME280;26418;50.070;8.436;2023-08-20T07:52:20;100479.22;;;25.70;67.86
40730;BME280;26418;50.070;8.436;2023-08-20T07:54:45;100468.19;;;25.81;66.65
40730;BME280;26418;50.070;8.436;2023-08-20T07:57:11;100470.19;;;25.92;66.65
40730;BME280;26418;50.070;8.436;2023-08-20T07:59:37;100476.13;;;25.94;67.00
40730;BME280;26418;50.070;8.436;2023-08-20T08:02:03;100472.97;;;25.92;66.89
40730;BME280;26418;50.070;8.436;2023-08-20T08:04:29;100473.75;;;25.99;66.88
40730;BME280;26418;50.070;8.436;2023-08-20T08:06:54;100474.97;;;26.02;66.95
40730;BME280;26418;50.070;8.436;2023-08-20T08:09:28;100474.16;;;26.01;67.70
40730;BME280;26418;50.070;8.436;2023-08-20T08:11:54;100472.22;;;26.09;67.20
40730;BME280;26418;50.070;8.436;2023-08-20T08:14:19;100476.19;;;26.19;67.51
40730;BME280;26418;50.070;8.436;2023-08-20T08:16:46;100486.09;;;26.27;66.98
40730;BME280;26418;50.070;8.436;2023-08-20T08:19:12;100488.09;;;26.38;66.75
40730;BME280;26418;50.070;8.436;2023-08-20T08:21:38;100474.63;;;26.43;66.48
40730;BME280;26418;50.070;8.436;2023-08-20T08:24:04;100479.38;;;26.50;66.54
40730;BME280;26418;50.070;8.436;2023-08-20T08:26:30;100484.53;;;26.55;65.07
40730;BME280;26418;50.070;8.436;2023-08-20T08:28:57;100491.28;;;26.54;65.50
40730;BME280;26418;50.070;8.436;2023-08-20T08:31:23;100479.38;;;26.53;65.82
40730;BME280;26418;50.070;8.436;2023-08-20T08:33:48;100482.94;;;26.58;65.67
40730;BME280;26418;50.070;8.436;2023-08-20T08:36:14;100482.16;;;26.64;65.75
40730;BME280;26418;50.070;8.436;2023-08-20T08:38:42;100484.53;;;26.73;65.39
40730;BME280;26418;50.070;8.436;2023-08-20T08:41:11;100483.75;;;26.83;65.54
40730;BME280;26418;50.070;8.436;2023-08-20T08:43:40;100482.16;;;26.93;64.78
40730;BME280;26418;50.070;8.436;2023-08-20T08:46:08;100485.75;;;26.90;64.80
40730;BME280;26418;50.070;8.436;2023-08-20T08:48:35;100483.31;;;26.96;65.13
40730;BME280;26418;50.070;8.436;2023-08-20T08:51:02;100483.69;;;27.09;64.99
40730;BME280;26418;50.070;8.436;2023-08-20T08:53:29;100475.34;;;27.16;64.99
40730;BME280;26418;50.070;8.436;2023-08-20T08:55:56;100477.69;;;27.28;63.56
40730;BME280;26418;50.070;8.436;2023-08-20T08:58:21;100469.34;;;27.36;63.74
40730;BME280;26418;50.070;8.436;2023-08-20T09:00:47;100470.91;;;27.40;62.84
40730;BME280;26418;50.070;8.436;2023-08-20T09:03:13;100480.84;;;27.45;62.71
40730;BME280;26418;50.070;8.436;2023-08-20T09:05:49;100478.81;;;27.56;63.02
40730;BME280;26418;50.070;8.436;2023-08-20T09:08:23;100471.59;;;27.70;62.42
40730;BME280;26418;50.070;8.436;2023-08-20T09:10:52;100486.94;;;27.92;62.69
40730;BME280;26418;50.070;8.436;2023-08-20T09:13:21;100473.78;;;28.07;60.87
40730;BME280;26418;50.070;8.436;2023-08-20T09:15:51;100478.47;;;28.21;58.84
40730;BME280;26418;50.070;8.436;2023-08-20T09:18:17;100479.50;;;28.38;57.71
40730;BME280;26418;50.070;8.436;2023-08-20T09:20:42;100470.69;;;28.51;57.80
40730;BME280;26418;50.070;8.436;2023-08-20T09:23:12;100476.41;;;28.78;55.86
40730;BME280;26418;50.070;8.436;2023-08-20T09:25:42;100481.81;;;28.96;55.70
40730;BME280;26418;50.070;8.436;2023-08-20T09:28:08;100473.91;;;29.29;54.89
40730;BME280;26418;50.070;8.436;2023-08-20T09:30:33;100476.16;;;29.42;53.46
40730;BME280;26418;50.070;8.436;2023-08-20T09:33:10;100475.91;;;29.60;53.48
40730;BME280;26418;50.070;8.436;2023-08-20T09:35:36;100480.31;;;29.92;52.85
40730;BME280;26418;50.070;8.436;2023-08-20T09:38:05;100482.94;;;30.03;53.64
40730;BME280;26418;50.070;8.436;2023-08-20T09:40:31;100479.16;;;30.40;53.57
40730;BME280;26418;50.070;8.436;2023-08-20T09:42:57;100478.59;;;30.77;52.58
40730;BME280;26418;50.070;8.436;2023-08-20T09:45:28;100473.53;;;31.12;51.78
40730;BME280;26418;50.070;8.436;2023-08-20T09:47:55;100471.59;;;31.49;50.34
40730;BME280;26418;50.070;8.436;2023-08-20T09:50:22;100482.47;;;31.83;49.10
40730;BME280;26418;50.070;8.436;2023-08-20T09:52:56;100479.25;;;31.85;48.18
40730;BME280;26418;50.070;8.436;2023-08-20T09:55:31;100479.50;;;32.07;46.43
40730;BME280;26418;50.070;8.436;2023-08-20T09:57:58;100473.84;;;32.11;46.98
40730;BME280;26418;50.070;8.436;2023-08-20T10:00:26;100475.00;;;32.13;46.80
40730;BME280;26418;50.070;8.436;2023-08-20T10:02:53;100482.00;;;32.22;46.30
40730;BME280;26418;50.070;8.436;2023-08-20T10:05:19;100468.50;;;32.00;45.38
40730;BME280;26418;50.070;8.436;2023-08-20T10:07:47;100467.28;;;32.01;45.36
40730;BME280;26418;50.070;8.436;2023-08-20T10:10:12;100467.75;;;32.33;43.60
40730;BME280;26418;50.070;8.436;2023-08-20T10:12:39;100470.91;;;32.35;43.92
40730;BME280;26418;50.070;8.436;2023-08-20T10:15:09;100464.00;;;32.39;43.66
40730;BME280;26418;50.070;8.436;2023-08-20T10:17:37;100474.19;;;32.63;43.81
40730;BME280;26418;50.070;8.436;2023-08-20T10:20:04;100466.13;;;32.81;43.24
40730;BME280;26418;50.070;8.436;2023-08-20T10:25:06;100472.06;;;33.42;42.54
40730;BME280;26418;50.070;8.436;2023-08-20T10:27:34;100465.69;;;33.80;42.49
40730;BME280;26418;50.070;8.436;2023-08-20T10:30:00;100460.53;;;33.79;41.35
40730;BME280;26418;50.070;8.436;2023-08-20T10:32:45;100463.81;;;34.16;41.84
40730;BME280;26418;50.070;8.436;2023-08-20T10:35:12;100455.75;;;34.53;41.74
40730;BME280;26418;50.070;8.436;2023-08-20T10:37:38;100468.16;;;34.78;39.53
40730;BME280;26418;50.070;8.436;2023-08-20T10:40:06;100461.69;;;34.68;39.44
40730;BME280;26418;50.070;8.436;2023-08-20T10:42:41;100463.63;;;34.58;39.56
40730;BME280;26418;50.070;8.436;2023-08-20T10:45:09;100463.13;;;34.73;39.46
40730;BME280;26418;50.070;8.436;2023-08-20T10:50:11;100456.81;;;35.26;38.71
40730;BME280;26418;50.070;8.436;2023-08-20T10:52:41;100452.97;;;35.64;38.62
40730;BME280;26418;50.070;8.436;2023-08-20T10:55:13;100446.97;;;35.84;37.61
40730;BME280;26418;50.070;8.436;2023-08-20T10:57:40;100450.63;;;36.03;36.61
40730;BME280;26418;50.070;8.436;2023-08-20T11:00:06;100450.88;;;35.87;36.07
40730;BME280;26418;50.070;8.436;2023-08-20T11:02:40;100458.44;;;35.99;37.26
40730;BME280;26418;50.070;8.436;2023-08-20T11:05:19;100457.56;;;36.30;36.48
40730;BME280;26418;50.070;8.436;2023-08-20T11:07:48;100468.81;;;36.21;35.29
40730;BME280;26418;50.070;8.436;2023-08-20T11:10:15;100460.47;;;35.99;35.55
40730;BME280;26418;50.070;8.436;2023-08-20T11:12:42;100465.22;;;36.20;35.80
40730;BME280;26418;50.070;8.436;2023-08-20T11:15:09;100463.78;;;36.16;35.88
40730;BME280;26418;50.070;8.436;2023-08-20T11:17:40;100449.78;;;36.44;35.56
40730;BME280;26418;50.070;8.436;2023-08-20T11:20:06;100460.59;;;36.73;34.56
40730;BME280;26418;50.070;8.436;2023-08-20T11:22:32;100446.34;;;36.95;35.53
40730;BME280;26418;50.070;8.436;2023-08-20T11:24:59;100446.94;;;37.09;35.38
40730;BME280;26418;50.070;8.436;2023-08-20T11:27:28;100449.16;;;37.05;34.54
40730;BME280;26418;50.070;8.436;2023-08-20T11:29:54;100453.81;;;37.26;34.85
40730;BME280;26418;50.070;8.436;2023-08-20T11:32:23;100449.72;;;37.46;34.97
40730;BME280;26418;50.070;8.436;2023-08-20T11:34:49;100451.47;;;37.77;34.13
40730;BME280;26418;50.070;8.436;2023-08-20T11:37:19;100449.59;;;38.08;33.98
40730;BME280;26418;50.070;8.436;2023-08-20T11:39:45;100453.44;;;38.19;32.08
40730;BME280;26418;50.070;8.436;2023-08-20T11:42:12;100444.53;;;38.12;32.78
40730;BME280;26418;50.070;8.436;2023-08-20T11:44:46;100444.84;;;37.89;33.21
40730;BME280;26418;50.070;8.436;2023-08-20T11:47:18;100446.56;;;37.44;32.11
40730;BME280;26418;50.070;8.436;2023-08-20T11:49:44;100442.66;;;37.32;33.78
40730;BME280;26418;50.070;8.436;2023-08-20T11:52:11;100439.84;;;37.75;33.47
40730;BME280;26418;50.070;8.436;2023-08-20T11:54:38;100438.91;;;37.78;33.08
40730;BME280;26418;50.070;8.436;2023-08-20T11:57:05;100448.69;;;38.01;32.05
40730;BME280;26418;50.070;8.436;2023-08-20T11:59:32;100441.41;;;37.85;32.40
40730;BME280;26418;50.070;8.436;2023-08-20T12:02:00;100440.63;;;37.85;31.34
40730;BME280;26418;50.070;8.436;2023-08-20T12:04:27;100443.59;;;37.81;32.55
40730;BME280;26418;50.070;8.436;2023-08-20T12:07:08;100432.22;;;38.00;33.18
40730;BME280;26418;50.070;8.436;2023-08-20T12:09:35;100441.06;;;37.83;32.93
40730;BME280;26418;50.070;8.436;2023-08-20T12:12:01;100446.66;;;38.02;32.64
40730;BME280;26418;50.070;8.436;2023-08-20T12:14:27;100443.72;;;38.20;32.25
40730;BME280;26418;50.070;8.436;2023-08-20T12:16:54;100440.22;;;38.50;31.24
40730;BME280;26418;50.070;8.436;2023-08-20T12:19:21;100429.94;;;38.13;31.83
40730;BME280;26418;50.070;8.436;2023-08-20T12:21:46;100431.22;;;38.12;31.59
40730;BME280;26418;50.070;8.436;2023-08-20T12:24:12;100436.81;;;38.21;31.53
40730;BME280;26418;50.070;8.436;2023-08-20T12:26:39;100435.03;;;38.00;31.98
40730;BME280;26418;50.070;8.436;2023-08-20T12:29:05;100429.75;;;37.93;32.52
40730;BME280;26418;50.070;8.436;2023-08-20T12:31:35;100430.94;;;37.77;32.37
40730;BME280;26418;50.070;8.436;2023-08-20T12:34:01;100427.75;;;37.50;32.55
40730;BME280;26418;50.070;8.436;2023-08-20T12:36:27;100423.50;;;36.93;33.71
40730;BME280;26418;50.070;8.436;2023-08-20T12:38:52;100424.28;;;36.57;34.59
40730;BME280;26418;50.070;8.436;2023-08-20T12:41:19;100420.81;;;36.34;34.96
40730;BME280;26418;50.070;8.436;2023-08-20T12:43:45;100423.44;;;36.19;35.53
40730;BME280;26418;50.070;8.436;2023-08-20T12:46:10;100420.91;;;36.02;35.43
40730;BME280;26418;50.070;8.436;2023-08-20T12:48:37;100414.44;;;35.83;36.26
40730;BME280;26418;50.070;8.436;2023-08-20T12:51:03;100396.78;;;35.51;36.12
40730;BME280;26418;50.070;8.436;2023-08-20T12:53:28;100415.59;;;35.64;36.88
40730;BME280;26418;50.070;8.436;2023-08-20T12:55:54;100404.28;;;35.23;36.40
40730;BME280;26418;50.070;8.436;2023-08-20T12:58:20;100399.50;;;35.01;37.09
40730;BME280;26418;50.070;8.436;2023-08-20T13:00:46;100398.84;;;34.97;37.08
40730;BME280;26418;50.070;8.436;2023-08-20T13:03:12;100402.78;;;35.00;37.61